createdAt,value
2018-12-22T00:02:20.906Z,3.65
2018-12-22T00:06:24.414Z,3.68
2018-12-22T00:10:27.973Z,3.74
2018-12-22T00:14:31.399Z,3.79
2018-12-22T00:18:34.988Z,3.83
2018-12-22T00:22:38.437Z,3.86
2018-12-22T00:26:41.868Z,3.92
2018-12-22T00:30:45.309Z,3.98
2018-12-22T00:34:51.878Z,4.05
2018-12-22T00:38:55.326Z,4.10
2018-12-22T00:42:58.803Z,4.15
2018-12-22T00:47:02.244Z,4.20
2018-12-22T00:51:05.825Z,4.23
2018-12-22T00:55:09.284Z,4.28
2018-12-22T00:59:12.822Z,4.31
2018-12-22T01:03:16.370Z,4.34
2018-12-22T01:07:19.847Z,4.35
2018-12-22T01:11:23.260Z,4.37
2018-12-22T01:15:26.723Z,4.42
2018-12-22T01:19:30.208Z,4.52
2018-12-22T01:23:33.619Z,4.58
2018-12-22T01:27:37.143Z,4.64
2018-12-22T01:31:40.591Z,4.68
2018-12-22T01:35:44.036Z,4.73
2018-12-22T01:39:47.479Z,4.79
2018-12-22T01:43:50.962Z,4.84
2018-12-22T01:47:54.364Z,4.87
2018-12-22T01:51:57.823Z,4.90
2018-12-22T01:56:01.246Z,4.92
2018-12-22T02:00:05.151Z,4.89
2018-12-22T02:04:08.607Z,4.89
2018-12-22T02:08:12.042Z,4.93
2018-12-22T02:12:15.650Z,4.95
2018-12-22T02:16:19.093Z,4.95
2018-12-22T02:20:22.517Z,4.90
2018-12-22T02:24:25.960Z,4.89
2018-12-22T02:28:29.420Z,4.92
2018-12-22T02:32:32.899Z,4.94
2018-12-22T02:36:36.376Z,4.96
2018-12-22T02:40:39.840Z,4.99
2018-12-22T02:44:43.317Z,5.05
2018-12-22T02:48:46.749Z,5.08
2018-12-22T02:52:50.387Z,5.18
2018-12-22T02:56:53.794Z,5.27
2018-12-22T03:00:57.255Z,5.34
2018-12-22T03:05:00.698Z,5.42
2018-12-22T03:09:05.157Z,5.49
2018-12-22T03:13:08.620Z,5.59
2018-12-22T03:17:12.059Z,5.73
2018-12-22T03:21:15.526Z,5.86
2018-12-22T03:25:18.976Z,5.98
2018-12-22T03:29:22.430Z,6.06
2018-12-22T03:33:25.879Z,6.13
2018-12-22T03:37:29.328Z,6.21
2018-12-22T03:41:32.807Z,6.29
2018-12-22T03:45:36.316Z,6.33
2018-12-22T03:49:39.764Z,6.38
2018-12-22T03:53:43.227Z,6.44
2018-12-22T03:57:46.667Z,6.50
2018-12-22T04:01:50.095Z,6.56
2018-12-22T04:05:53.526Z,6.66
2018-12-22T04:09:56.953Z,6.73
2018-12-22T04:14:00.417Z,6.84
2018-12-22T04:18:04.724Z,6.95
2018-12-22T04:22:08.196Z,7.11
2018-12-22T04:26:11.654Z,7.25
2018-12-22T04:30:15.124Z,7.36
2018-12-22T04:34:18.582Z,7.46
2018-12-22T04:38:22.085Z,7.56
2018-12-22T04:42:25.551Z,7.65
2018-12-22T04:46:29.083Z,7.73
2018-12-22T04:50:32.483Z,7.86
2018-12-22T04:54:35.932Z,7.94
2018-12-22T04:58:39.432Z,8.01
2018-12-22T05:02:42.886Z,8.10
2018-12-22T05:06:46.348Z,8.17
2018-12-22T05:10:49.766Z,8.23
2018-12-22T05:14:53.217Z,8.26
2018-12-22T05:18:56.669Z,8.29
2018-12-22T05:23:00.123Z,8.32
2018-12-22T05:27:03.638Z,8.29
2018-12-22T05:31:07.091Z,8.27
2018-12-22T05:35:10.595Z,8.29
2018-12-22T05:39:14.074Z,8.33
2018-12-22T05:43:17.501Z,8.41
2018-12-22T05:47:20.929Z,8.61
2018-12-22T05:51:24.440Z,8.74
2018-12-22T05:55:27.988Z,8.85
2018-12-22T05:59:31.402Z,8.98
2018-12-22T06:03:34.914Z,9.13
2018-12-22T06:07:38.365Z,9.24
2018-12-22T06:11:41.859Z,9.32
2018-12-22T06:15:45.318Z,9.46
2018-12-22T06:19:48.739Z,9.56
2018-12-22T06:23:52.220Z,9.66
2018-12-22T06:27:55.673Z,9.74
2018-12-22T06:31:59.187Z,9.79
2018-12-22T06:36:02.637Z,9.83
2018-12-22T06:40:06.237Z,9.84
2018-12-22T06:44:09.720Z,9.86
2018-12-22T06:48:13.197Z,9.90
2018-12-22T06:52:16.665Z,9.90
2018-12-22T06:56:20.099Z,9.91
2018-12-22T07:00:23.532Z,9.94
2018-12-22T07:04:27.016Z,9.99
2018-12-22T07:08:30.462Z,10.04
2018-12-22T07:12:33.921Z,10.09
2018-12-22T07:16:37.562Z,10.12
2018-12-22T07:20:41.098Z,10.16
2018-12-22T07:24:44.595Z,10.09
2018-12-22T07:28:48.107Z,10.01
2018-12-22T07:32:56.960Z,9.95
2018-12-22T07:36:57.023Z,9.90
2018-12-22T07:41:00.546Z,9.86
2018-12-22T07:45:04.141Z,9.80
2018-12-22T07:49:07.753Z,9.72
2018-12-22T07:53:11.210Z,9.62
2018-12-22T07:57:14.690Z,9.64
2018-12-22T08:01:19.892Z,9.66
2018-12-22T08:05:23.625Z,9.66
2018-12-22T08:09:27.192Z,9.66
2018-12-22T08:13:30.631Z,9.71
2018-12-22T08:17:34.102Z,9.76
2018-12-22T08:21:37.666Z,9.82
2018-12-22T08:25:41.123Z,9.89
2018-12-22T08:29:44.620Z,9.95
2018-12-22T08:33:48.097Z,10.01
2018-12-22T08:37:51.555Z,10.05
2018-12-22T08:41:55.000Z,10.11
2018-12-22T08:45:58.459Z,10.15
2018-12-22T08:50:09.059Z,10.15
2018-12-22T08:54:07.737Z,10.20
2018-12-22T08:58:11.201Z,10.23
2018-12-22T09:02:14.915Z,10.28
2018-12-22T09:06:18.354Z,10.31
2018-12-22T09:10:21.911Z,10.33
2018-12-22T09:14:25.407Z,10.35
2018-12-22T09:18:28.903Z,10.34
2018-12-22T09:22:32.484Z,10.30
2018-12-22T09:26:36.239Z,10.29
2018-12-22T09:30:39.694Z,10.32
2018-12-22T09:34:43.140Z,10.37
2018-12-22T09:38:46.627Z,10.37
2018-12-22T09:42:50.064Z,10.38
2018-12-22T09:46:53.548Z,10.35
2018-12-22T09:50:57.077Z,10.34
2018-12-22T09:55:00.547Z,10.41
2018-12-22T09:59:03.988Z,10.52
2018-12-22T10:03:07.611Z,10.58
2018-12-22T10:07:11.695Z,10.62
2018-12-22T10:11:15.153Z,10.65
2018-12-22T10:15:18.580Z,10.69
2018-12-22T10:19:22.068Z,10.70
2018-12-22T10:23:25.744Z,10.72
2018-12-22T10:27:29.412Z,10.73
2018-12-22T10:31:32.885Z,10.76
2018-12-22T10:35:36.367Z,10.76
2018-12-22T10:39:39.875Z,10.76
2018-12-22T10:43:43.345Z,10.77
2018-12-22T10:47:46.831Z,10.81
2018-12-22T10:51:50.623Z,10.84
2018-12-22T10:55:54.071Z,10.85
2018-12-22T10:59:57.551Z,10.87
2018-12-22T11:04:01.460Z,10.89
2018-12-22T11:08:05.075Z,10.92
2018-12-22T11:12:08.645Z,10.92
2018-12-22T11:16:12.271Z,10.92
2018-12-22T11:20:16.076Z,10.97
2018-12-22T11:24:19.629Z,11.02
2018-12-22T11:28:23.171Z,11.07
2018-12-22T11:32:26.804Z,11.14
2018-12-22T11:36:30.273Z,11.22
2018-12-22T11:40:33.934Z,11.30
2018-12-22T11:44:37.470Z,11.37
2018-12-22T11:48:51.848Z,11.44
2018-12-22T11:52:55.350Z,11.54
2018-12-22T11:56:58.860Z,11.63
2018-12-22T12:01:02.324Z,11.75
2018-12-22T12:05:07.246Z,11.84
2018-12-22T12:09:10.805Z,11.89
2018-12-22T12:13:14.266Z,11.89
2018-12-22T12:17:34.403Z,11.83
2018-12-22T12:21:37.909Z,11.73
2018-12-22T12:25:41.375Z,11.60
2018-12-22T12:29:44.952Z,11.47
2018-12-22T12:33:48.408Z,11.41
2018-12-22T12:37:51.840Z,11.34
2018-12-22T12:41:55.291Z,11.25
2018-12-22T12:45:58.848Z,11.12
2018-12-22T12:50:02.580Z,11.04
2018-12-22T12:54:06.579Z,10.98
2018-12-22T12:58:10.182Z,10.91
2018-12-22T13:02:13.653Z,10.87
2018-12-22T13:06:17.192Z,10.85
2018-12-22T13:10:20.892Z,10.83
2018-12-22T13:14:25.227Z,10.85
2018-12-22T13:18:28.703Z,10.83
2018-12-22T13:22:32.172Z,10.84
2018-12-22T13:26:36.835Z,10.85
2018-12-22T13:30:40.923Z,10.86
2018-12-22T13:34:46.306Z,10.87
2018-12-22T13:38:54.142Z,10.89
2018-12-22T13:42:57.617Z,10.94
2018-12-22T13:47:01.087Z,10.97
2018-12-22T13:51:04.694Z,11.03
2018-12-22T13:55:08.663Z,11.06
2018-12-22T13:59:12.131Z,11.08
2018-12-22T14:03:20.201Z,11.08
2018-12-22T14:07:23.697Z,11.12
2018-12-22T14:11:27.223Z,11.19
2018-12-22T14:15:31.044Z,11.24
2018-12-22T14:19:34.771Z,11.26
2018-12-22T14:24:02.540Z,11.30
2018-12-22T14:28:06.137Z,11.30
2018-12-22T14:32:09.595Z,11.35
2018-12-22T14:36:14.335Z,11.36
2018-12-22T14:40:17.804Z,11.36
2018-12-22T14:44:21.316Z,11.35
2018-12-22T14:48:24.742Z,11.39
2018-12-22T14:52:28.216Z,11.42
2018-12-22T14:56:36.737Z,11.40
2018-12-22T15:00:40.323Z,11.46
2018-12-22T15:04:43.776Z,11.49
2018-12-22T15:08:47.221Z,11.53
2018-12-22T15:12:50.675Z,11.56
2018-12-22T15:16:54.245Z,11.53
2018-12-22T15:20:59.043Z,11.52
2018-12-22T15:25:02.588Z,11.46
2018-12-22T15:29:06.100Z,11.43
2018-12-22T15:33:09.625Z,11.40
2018-12-22T15:37:13.144Z,11.36
2018-12-22T15:41:16.669Z,11.35
2018-12-22T15:45:20.180Z,11.34
2018-12-22T15:49:24.107Z,11.32
2018-12-22T15:53:27.576Z,11.34
2018-12-22T15:57:31.042Z,11.35
2018-12-22T16:01:34.510Z,11.30
2018-12-22T16:05:38.018Z,11.26
2018-12-22T16:09:41.809Z,11.27
2018-12-22T16:13:45.427Z,11.25
2018-12-22T16:17:48.916Z,11.21
2018-12-22T16:21:52.420Z,11.18
2018-12-22T16:25:55.923Z,11.13
2018-12-22T16:29:59.403Z,11.10
2018-12-22T16:34:03.444Z,11.07
2018-12-22T16:38:06.969Z,11.02
2018-12-22T16:42:10.462Z,11.01
2018-12-22T16:46:13.934Z,10.98
2018-12-22T16:50:17.470Z,10.95
2018-12-22T16:54:20.906Z,10.96
2018-12-22T16:58:34.308Z,10.96
2018-12-22T17:02:45.861Z,10.96
2018-12-22T17:06:49.397Z,10.99
2018-12-22T17:10:57.444Z,10.98
2018-12-22T17:15:01.151Z,10.96
2018-12-22T17:19:04.618Z,10.93
2018-12-22T17:23:33.496Z,10.88
2018-12-22T17:27:37.442Z,10.84
2018-12-22T17:31:42.698Z,10.76
2018-12-22T17:35:46.358Z,10.72
2018-12-22T17:39:53.557Z,10.71
2018-12-22T17:43:55.982Z,10.80
2018-12-22T17:47:59.602Z,10.85
2018-12-22T17:52:03.143Z,10.87
2018-12-22T17:56:06.628Z,10.85
2018-12-22T18:00:11.297Z,10.83
2018-12-22T18:04:15.255Z,10.78
2018-12-22T18:08:18.733Z,10.78
2018-12-22T18:12:22.273Z,10.73
2018-12-22T18:16:25.779Z,10.71
2018-12-22T18:20:29.267Z,10.65
2018-12-22T18:24:32.846Z,10.59
2018-12-22T18:28:36.352Z,10.51
2018-12-22T18:32:39.997Z,10.47
2018-12-22T18:36:43.721Z,10.43
2018-12-22T18:40:47.342Z,10.41
2018-12-22T18:44:51.399Z,10.41
2018-12-22T18:48:55.089Z,10.43
2018-12-22T18:52:58.591Z,10.43
2018-12-22T18:57:02.312Z,10.41
2018-12-22T19:01:06.030Z,10.38
2018-12-22T19:05:09.571Z,10.38
2018-12-22T19:09:18.469Z,10.35
2018-12-22T19:13:22.165Z,10.34
2018-12-22T19:17:25.923Z,10.31
2018-12-22T19:21:29.668Z,10.29
2018-12-22T19:25:33.330Z,10.27
2018-12-22T19:29:37.006Z,10.25
2018-12-22T19:33:40.787Z,10.23
2018-12-22T19:37:44.566Z,10.18
2018-12-22T19:41:48.305Z,10.17
2018-12-22T19:45:52.691Z,10.14
2018-12-22T19:49:56.410Z,10.12
2018-12-22T19:53:59.922Z,10.11
2018-12-22T19:58:03.724Z,10.11
2018-12-22T20:02:07.472Z,10.12
2018-12-22T20:06:11.047Z,10.13
2018-12-22T20:10:14.903Z,10.08
2018-12-22T20:14:18.548Z,10.04
2018-12-22T20:18:22.230Z,10.03
2018-12-22T20:22:25.965Z,10.01
2018-12-22T20:26:29.655Z,10.01
2018-12-22T20:30:33.248Z,10.00
2018-12-22T20:34:36.903Z,9.99
2018-12-22T20:38:41.229Z,9.96
2018-12-22T20:42:44.742Z,9.94
2018-12-22T20:46:48.312Z,9.93
2018-12-22T20:50:51.873Z,9.90
2018-12-22T20:54:55.377Z,9.91
2018-12-22T20:58:58.984Z,9.92
2018-12-22T21:03:02.665Z,9.93
2018-12-22T21:07:06.260Z,9.92
2018-12-22T21:11:09.740Z,9.94
2018-12-22T21:15:13.291Z,9.98
2018-12-22T21:19:17.023Z,10.00
2018-12-22T21:23:20.483Z,10.03
2018-12-22T21:27:24.104Z,10.03
2018-12-22T21:31:29.247Z,10.02
2018-12-22T21:35:36.000Z,10.04
2018-12-22T21:39:41.276Z,10.04
2018-12-22T21:43:44.982Z,10.03
2018-12-22T21:47:50.699Z,10.01
2018-12-22T21:51:54.483Z,9.97
2018-12-22T21:55:58.088Z,9.97
2018-12-22T22:00:01.625Z,9.94
2018-12-22T22:04:05.276Z,9.93
2018-12-22T22:08:08.909Z,9.92
2018-12-22T22:12:12.660Z,9.91
2018-12-22T22:16:16.354Z,9.90
2018-12-22T22:20:20.124Z,9.91
2018-12-22T22:24:23.861Z,9.95
2018-12-22T22:28:34.091Z,9.97
2018-12-22T22:32:37.715Z,9.95
2018-12-22T22:36:41.524Z,9.93
2018-12-22T22:40:45.350Z,9.90
2018-12-22T22:44:48.932Z,9.86
2018-12-22T22:48:52.466Z,9.82
2018-12-22T22:52:55.965Z,9.79
2018-12-22T22:56:59.571Z,9.72
2018-12-22T23:01:03.417Z,9.70
2018-12-22T23:05:06.971Z,9.68
2018-12-22T23:09:10.560Z,9.66
2018-12-22T23:13:14.160Z,9.64
2018-12-22T23:17:17.863Z,9.63
2018-12-22T23:21:21.322Z,9.63
2018-12-22T23:25:24.784Z,9.61
2018-12-22T23:29:28.244Z,9.62
2018-12-22T23:33:31.819Z,9.62
2018-12-22T23:37:35.487Z,9.65
2018-12-22T23:41:39.221Z,9.61
2018-12-22T23:45:42.712Z,9.59
2018-12-22T23:49:46.443Z,9.61
2018-12-22T23:53:50.253Z,9.64
2018-12-22T23:57:53.914Z,9.65
